createdAt,value
2017-10-10T00:00:37.024Z,99777.75
2017-10-10T00:03:03.325Z,99774.06
2017-10-10T00:05:30.354Z,99768.55
2017-10-10T00:07:56.727Z,99760.84
2017-10-10T00:10:23.115Z,99761.77
2017-10-10T00:12:49.466Z,99748.38
2017-10-10T00:15:16.563Z,99760.81
2017-10-10T00:17:42.873Z,99760.48
2017-10-10T00:20:09.181Z,99749.12
2017-10-10T00:22:36.237Z,99742.17
2017-10-10T00:25:02.540Z,99754.17
2017-10-10T00:27:28.830Z,99754.88
2017-10-10T00:29:55.961Z,99747.06
2017-10-10T00:32:22.293Z,99747.80
2017-10-10T00:34:48.623Z,99740.33
2017-10-10T00:37:14.926Z,99736.27
2017-10-10T00:39:41.285Z,99746.55
2017-10-10T00:42:07.611Z,99738.05
2017-10-10T00:44:33.916Z,99742.87
2017-10-10T00:47:00.957Z,99727.53
2017-10-10T00:49:27.972Z,99734.08
2017-10-10T00:51:54.320Z,99730.52
2017-10-10T00:54:20.661Z,99726.06
2017-10-10T00:56:46.953Z,99720.55
2017-10-10T00:59:13.269Z,99714.69
2017-10-10T01:01:39.592Z,99716.86
2017-10-10T01:04:05.920Z,99715.61
2017-10-10T01:06:32.270Z,99711.61
2017-10-10T01:08:58.612Z,99706.36
2017-10-10T01:11:24.939Z,99697.59
2017-10-10T01:13:51.254Z,99709.71
2017-10-10T01:16:17.630Z,99703.03
2017-10-10T01:18:44.009Z,99703.39
2017-10-10T01:21:10.338Z,99708.52
2017-10-10T01:23:36.622Z,99694.88
2017-10-10T01:26:02.953Z,99707.41
2017-10-10T01:28:29.296Z,99700.26
2017-10-10T01:30:55.627Z,99705.95
2017-10-10T01:33:21.897Z,99701.78
2017-10-10T01:35:48.209Z,99699.66
2017-10-10T01:38:15.220Z,99694.89
2017-10-10T01:40:41.547Z,99696.26
2017-10-10T01:43:07.878Z,99695.13
2017-10-10T01:45:34.228Z,99695.66
2017-10-10T01:48:00.548Z,99697.34
2017-10-10T01:50:26.863Z,99691.88
2017-10-10T01:52:53.175Z,99685.76
2017-10-10T01:55:19.503Z,99691.72
2017-10-10T01:57:45.889Z,99688.89
2017-10-10T02:00:12.245Z,99686.92
2017-10-10T02:02:39.252Z,99683.09
2017-10-10T02:05:05.644Z,99689.98
2017-10-10T02:07:31.945Z,99688.34
2017-10-10T02:09:59.074Z,99669.09
2017-10-10T02:12:25.378Z,99680.36
2017-10-10T02:14:51.730Z,99678.45
2017-10-10T02:17:18.017Z,99674.75
2017-10-10T02:19:44.476Z,99673.70
2017-10-10T02:22:10.806Z,99663.38
2017-10-10T02:24:37.117Z,99679.02
2017-10-10T02:27:03.450Z,99670.69
2017-10-10T02:29:29.764Z,99669.44
2017-10-10T02:31:56.086Z,99664.25
2017-10-10T02:34:22.389Z,99657.50
2017-10-10T02:36:49.543Z,99667.41
2017-10-10T02:39:16.551Z,99664.38
2017-10-10T02:41:42.966Z,99650.30
2017-10-10T02:44:09.326Z,99654.30
2017-10-10T02:46:35.635Z,99659.75
2017-10-10T02:49:01.978Z,99658.11
2017-10-10T02:51:28.362Z,99657.39
2017-10-10T02:53:55.465Z,99654.64
2017-10-10T02:56:21.838Z,99639.86
2017-10-10T02:58:48.194Z,99658.52
2017-10-10T03:01:14.557Z,99652.11
2017-10-10T03:03:40.892Z,99655.39
2017-10-10T03:06:07.207Z,99659.00
2017-10-10T03:08:33.473Z,99643.15
2017-10-10T03:11:00.570Z,99655.11
2017-10-10T03:13:27.000Z,99658.16
2017-10-10T03:15:53.385Z,99653.70
2017-10-10T03:18:19.765Z,99638.34
2017-10-10T03:20:46.169Z,99650.03
2017-10-10T03:23:12.544Z,99639.05
2017-10-10T03:25:38.904Z,99648.13
2017-10-10T03:28:05.416Z,99644.42
2017-10-10T03:30:31.785Z,99639.97
2017-10-10T03:32:59.318Z,99642.91
2017-10-10T03:35:25.692Z,99646.07
2017-10-10T03:37:52.126Z,99643.01
2017-10-10T03:40:19.154Z,99648.39
2017-10-10T03:42:45.494Z,99651.47
2017-10-10T03:45:11.784Z,99650.75
2017-10-10T03:47:38.388Z,99641.46
2017-10-10T03:50:05.450Z,99641.58
2017-10-10T03:52:31.743Z,99640.52
2017-10-10T03:54:58.098Z,99641.14
2017-10-10T03:57:25.146Z,99641.10
2017-10-10T03:59:52.351Z,99637.74
2017-10-10T04:02:18.732Z,99641.03
2017-10-10T04:04:45.047Z,99635.99
2017-10-10T04:07:11.336Z,99635.59
2017-10-10T04:09:37.672Z,99640.86
2017-10-10T04:12:03.989Z,99638.02
2017-10-10T04:14:30.287Z,99637.80
2017-10-10T04:16:57.327Z,99640.44
2017-10-10T04:19:23.713Z,99633.07
2017-10-10T04:21:49.998Z,99637.05
2017-10-10T04:24:24.013Z,99636.91
2017-10-10T04:26:50.452Z,99637.83
2017-10-10T04:29:16.802Z,99634.00
2017-10-10T04:31:43.151Z,99632.88
2017-10-10T04:34:09.539Z,99620.37
2017-10-10T04:36:36.060Z,99641.38
2017-10-10T04:39:03.549Z,99636.86
2017-10-10T04:41:29.878Z,99639.88
2017-10-10T04:43:56.208Z,99635.35
2017-10-10T04:46:22.520Z,99638.14
2017-10-10T04:48:49.692Z,99634.91
2017-10-10T04:51:16.057Z,99632.12
2017-10-10T04:53:42.420Z,99632.58
2017-10-10T04:56:08.692Z,99632.17
2017-10-10T04:58:35.025Z,99630.46
2017-10-10T05:01:01.382Z,99637.10
2017-10-10T05:03:27.670Z,99633.34
2017-10-10T05:05:54.035Z,99639.06
2017-10-10T05:08:21.068Z,99637.80
2017-10-10T05:10:47.360Z,99637.50
2017-10-10T05:13:14.437Z,99640.04
2017-10-10T05:15:40.778Z,99642.91
2017-10-10T05:18:07.085Z,99648.17
2017-10-10T05:20:34.233Z,99650.47
2017-10-10T05:23:01.265Z,99642.71
2017-10-10T05:25:28.390Z,99645.71
2017-10-10T05:27:54.718Z,99645.53
2017-10-10T05:30:21.046Z,99650.52
2017-10-10T05:32:47.410Z,99658.30
2017-10-10T05:35:14.550Z,99659.78
2017-10-10T05:37:40.844Z,99664.18
2017-10-10T05:40:07.179Z,99664.70
2017-10-10T05:42:33.586Z,99665.79
2017-10-10T05:44:59.880Z,99666.23
2017-10-10T05:47:26.166Z,99666.69
2017-10-10T05:49:52.510Z,99667.67
2017-10-10T05:52:18.842Z,99672.27
2017-10-10T05:54:45.166Z,99672.04
2017-10-10T05:57:11.505Z,99677.78
2017-10-10T05:59:37.832Z,99675.56
2017-10-10T06:02:04.241Z,99674.26
2017-10-10T06:04:30.630Z,99676.73
2017-10-10T06:06:56.961Z,99679.47
2017-10-10T06:09:23.379Z,99680.23
2017-10-10T06:11:49.711Z,99682.80
2017-10-10T06:14:16.796Z,99686.22
2017-10-10T06:16:43.945Z,99686.38
2017-10-10T06:19:11.023Z,99687.04
2017-10-10T06:21:37.375Z,99684.72
2017-10-10T06:24:03.703Z,99692.97
2017-10-10T06:26:30.037Z,99692.18
2017-10-10T06:28:57.084Z,99698.46
2017-10-10T06:31:23.420Z,99700.36
2017-10-10T06:33:49.797Z,99697.69
2017-10-10T06:36:16.893Z,99703.11
2017-10-10T06:38:43.299Z,99701.16
2017-10-10T06:41:09.619Z,99700.13
2017-10-10T06:43:35.933Z,99699.65
2017-10-10T06:46:02.999Z,99699.84
2017-10-10T06:48:29.389Z,99701.69
2017-10-10T06:50:55.845Z,99707.38
2017-10-10T06:53:22.896Z,99704.43
2017-10-10T06:55:50.023Z,99712.58
2017-10-10T06:58:17.084Z,99709.28
2017-10-10T07:00:44.253Z,99712.48
2017-10-10T07:03:11.393Z,99716.23
2017-10-10T07:05:38.521Z,99718.41
2017-10-10T07:08:04.943Z,99716.63
2017-10-10T07:10:31.358Z,99718.23
2017-10-10T07:12:57.780Z,99720.94
2017-10-10T07:15:24.119Z,99723.15
2017-10-10T07:17:50.399Z,99723.30
2017-10-10T07:20:16.726Z,99725.05
2017-10-10T07:22:42.989Z,99733.32
2017-10-10T07:25:09.279Z,99729.91
2017-10-10T07:27:36.011Z,99727.70
2017-10-10T07:30:02.364Z,99730.38
2017-10-10T07:32:28.670Z,99737.66
2017-10-10T07:34:55.065Z,99729.00
2017-10-10T07:37:21.361Z,99725.80
2017-10-10T07:39:48.418Z,99731.70
2017-10-10T07:42:15.430Z,99729.48
2017-10-10T07:44:41.754Z,99738.84
2017-10-10T07:47:08.129Z,99734.87
2017-10-10T07:49:35.310Z,99735.54
2017-10-10T07:52:01.784Z,99737.16
2017-10-10T07:54:28.110Z,99736.89
2017-10-10T07:56:54.446Z,99737.53
2017-10-10T07:59:20.799Z,99732.53
2017-10-10T08:01:47.880Z,99739.16
2017-10-10T08:04:14.483Z,99743.52
2017-10-10T08:06:41.519Z,99742.42
2017-10-10T08:09:07.855Z,99750.53
2017-10-10T08:11:34.148Z,99744.16
2017-10-10T08:14:00.457Z,99740.33
2017-10-10T08:16:26.781Z,99744.59
2017-10-10T08:18:53.281Z,99741.99
2017-10-10T08:21:20.399Z,99750.13
2017-10-10T08:23:46.729Z,99748.70
2017-10-10T08:26:13.891Z,99746.61
2017-10-10T08:28:40.222Z,99737.95
2017-10-10T08:31:06.627Z,99748.49
2017-10-10T08:33:32.998Z,99751.39
2017-10-10T08:36:00.266Z,99753.55
2017-10-10T08:38:26.644Z,99752.71
2017-10-10T08:40:53.006Z,99748.89
2017-10-10T08:43:19.731Z,99755.95
2017-10-10T08:45:46.022Z,99753.09
2017-10-10T08:48:13.056Z,99754.00
2017-10-10T08:50:40.101Z,99750.59
2017-10-10T08:53:06.453Z,99756.71
2017-10-10T08:55:32.859Z,99753.34
2017-10-10T08:57:59.183Z,99752.56
2017-10-10T09:00:25.508Z,99741.87
2017-10-10T09:02:51.818Z,99748.28
2017-10-10T09:05:18.276Z,99747.02
2017-10-10T09:07:44.683Z,99743.13
2017-10-10T09:10:11.103Z,99744.59
2017-10-10T09:12:37.486Z,99739.23
2017-10-10T09:15:04.584Z,99740.02
2017-10-10T09:17:31.141Z,99747.02
2017-10-10T09:19:57.582Z,99746.06
2017-10-10T09:22:23.887Z,99751.08
2017-10-10T09:24:50.301Z,99747.32
2017-10-10T09:27:16.712Z,99749.84
2017-10-10T09:29:43.084Z,99756.56
2017-10-10T09:32:09.422Z,99751.35
2017-10-10T09:34:35.824Z,99761.38
2017-10-10T09:37:02.574Z,99754.83
2017-10-10T09:39:28.935Z,99756.87
2017-10-10T09:41:55.225Z,99748.45
2017-10-10T09:44:21.564Z,99756.74
2017-10-10T09:46:47.999Z,99762.80
2017-10-10T09:49:14.347Z,99755.91
2017-10-10T09:51:40.809Z,99746.38
2017-10-10T09:54:07.163Z,99747.29
2017-10-10T09:56:34.238Z,99760.11
2017-10-10T09:59:00.590Z,99756.77
2017-10-10T10:01:26.932Z,99754.66
2017-10-10T10:03:53.289Z,99764.88
2017-10-10T10:06:19.644Z,99759.65
2017-10-10T10:08:46.699Z,99750.55
2017-10-10T10:11:13.867Z,99760.34
2017-10-10T10:13:40.200Z,99764.09
2017-10-10T10:16:07.425Z,99763.13
2017-10-10T10:18:34.671Z,99762.75
2017-10-10T10:21:01.708Z,99761.64
2017-10-10T10:23:28.026Z,99753.28
2017-10-10T10:25:54.326Z,99759.17
2017-10-10T10:28:20.643Z,99764.66
2017-10-10T10:30:46.926Z,99769.41
2017-10-10T10:33:13.234Z,99762.78
2017-10-10T10:35:39.575Z,99757.20
2017-10-10T10:38:05.940Z,99766.52
2017-10-10T10:40:32.966Z,99768.32
2017-10-10T10:42:59.293Z,99765.52
2017-10-10T10:45:25.597Z,99764.09
2017-10-10T10:47:51.917Z,99759.89
2017-10-10T10:52:51.171Z,99756.22
2017-10-10T10:55:17.526Z,99753.31
2017-10-10T10:57:43.875Z,99744.20
2017-10-10T11:00:10.300Z,99757.47
2017-10-10T11:02:37.600Z,99748.21
2017-10-10T11:05:04.048Z,99748.17
2017-10-10T11:07:30.446Z,99734.45
2017-10-10T11:09:56.785Z,99739.34
2017-10-10T11:12:23.103Z,99733.02
2017-10-10T11:14:49.381Z,99733.43
2017-10-10T11:17:15.695Z,99733.06
2017-10-10T11:19:42.198Z,99729.00
2017-10-10T11:22:08.572Z,99731.47
2017-10-10T11:24:34.870Z,99733.30
2017-10-10T11:27:01.244Z,99736.16
2017-10-10T11:29:27.624Z,99734.13
2017-10-10T11:31:54.037Z,99733.20
2017-10-10T11:34:20.330Z,99734.56
2017-10-10T11:36:46.649Z,99735.74
2017-10-10T11:39:12.952Z,99731.60
2017-10-10T11:41:39.230Z,99728.75
2017-10-10T11:44:05.517Z,99732.20
2017-10-10T11:46:31.888Z,99734.52
2017-10-10T11:48:58.229Z,99729.98
2017-10-10T11:51:24.573Z,99729.16
2017-10-10T11:53:50.869Z,99726.29
2017-10-10T11:56:17.393Z,99728.02
2017-10-10T11:58:43.740Z,99724.27
2017-10-10T12:01:10.052Z,99729.34
2017-10-10T12:03:36.368Z,99723.59
2017-10-10T12:06:02.670Z,99733.48
2017-10-10T12:08:29.767Z,99730.75
2017-10-10T12:10:56.089Z,99721.95
2017-10-10T12:13:22.384Z,99725.69
2017-10-10T12:15:49.431Z,99724.00
2017-10-10T12:18:16.445Z,99713.91
2017-10-10T12:20:42.794Z,99718.04
2017-10-10T12:23:09.116Z,99709.45
2017-10-10T12:25:35.418Z,99713.71
2017-10-10T12:28:01.809Z,99713.68
2017-10-10T12:30:28.142Z,99707.89
2017-10-10T12:32:55.378Z,99701.70
2017-10-10T12:35:22.509Z,99703.69
2017-10-10T12:37:48.906Z,99699.66
2017-10-10T12:40:15.246Z,99701.67
2017-10-10T12:42:41.713Z,99701.46
2017-10-10T12:45:08.100Z,99699.80
2017-10-10T12:47:34.547Z,99697.49
2017-10-10T12:50:00.895Z,99705.59
2017-10-10T12:52:27.245Z,99693.88
2017-10-10T12:54:53.625Z,99703.87
2017-10-10T12:57:19.904Z,99700.69
2017-10-10T12:59:46.306Z,99698.02
2017-10-10T13:02:12.891Z,99706.47
2017-10-10T13:04:39.257Z,99717.95
2017-10-10T13:07:05.590Z,99715.80
2017-10-10T13:09:31.951Z,99713.52
2017-10-10T13:11:58.360Z,99721.50
2017-10-10T13:14:24.764Z,99722.62
2017-10-10T13:16:51.879Z,99716.05
2017-10-10T13:19:18.180Z,99719.34
2017-10-10T13:21:44.514Z,99709.33
2017-10-10T13:24:10.951Z,99718.28
2017-10-10T13:26:37.258Z,99724.04
2017-10-10T13:29:03.635Z,99709.40
2017-10-10T13:31:29.963Z,99700.69
2017-10-10T13:33:56.362Z,99715.88
2017-10-10T13:36:22.800Z,99716.75
2017-10-10T13:38:49.136Z,99714.52
2017-10-10T13:41:15.469Z,99705.56
2017-10-10T13:43:41.877Z,99714.82
2017-10-10T13:46:08.977Z,99710.77
2017-10-10T13:48:35.338Z,99709.97
2017-10-10T13:51:01.674Z,99712.03
2017-10-10T13:53:28.738Z,99703.33
2017-10-10T13:55:55.897Z,99712.69
2017-10-10T13:58:22.295Z,99709.05
2017-10-10T14:00:48.696Z,99712.35
2017-10-10T14:03:15.017Z,99708.14
2017-10-10T14:05:41.331Z,99710.59
2017-10-10T14:08:07.729Z,99705.69
2017-10-10T14:10:34.145Z,99697.96
2017-10-10T14:13:00.648Z,99706.06
2017-10-10T14:15:26.981Z,99703.08
2017-10-10T14:17:53.285Z,99706.23
2017-10-10T14:20:19.689Z,99709.01
2017-10-10T14:22:46.045Z,99703.50
2017-10-10T14:25:13.146Z,99704.63
2017-10-10T14:27:39.533Z,99694.47
2017-10-10T14:30:05.898Z,99706.78
2017-10-10T14:32:32.193Z,99703.73
2017-10-10T14:34:58.550Z,99713.20
2017-10-10T14:37:25.741Z,99710.85
2017-10-10T14:39:52.049Z,99715.00
2017-10-10T14:42:18.371Z,99711.30
2017-10-10T14:44:44.701Z,99715.66
2017-10-10T14:47:11.087Z,99717.11
2017-10-10T14:49:38.308Z,99729.71
2017-10-10T14:52:04.632Z,99724.03
2017-10-10T14:54:31.042Z,99725.84
2017-10-10T14:56:57.350Z,99723.78
2017-10-10T14:59:23.682Z,99730.69
2017-10-10T15:01:50.039Z,99723.03
2017-10-10T15:04:16.342Z,99731.17
2017-10-10T15:06:42.756Z,99733.84
2017-10-10T15:09:09.868Z,99732.49
2017-10-10T15:11:36.203Z,99733.27
2017-10-10T15:14:02.573Z,99738.11
2017-10-10T15:16:28.905Z,99738.92
2017-10-10T15:18:56.028Z,99742.85
2017-10-10T15:21:22.461Z,99754.17
2017-10-10T15:23:48.765Z,99751.25
2017-10-10T15:26:15.133Z,99750.80
2017-10-10T15:28:42.298Z,99757.70
2017-10-10T15:31:09.404Z,99757.70
2017-10-10T15:33:35.930Z,99766.98
2017-10-10T15:36:02.305Z,99766.45
2017-10-10T15:38:28.813Z,99763.81
2017-10-10T15:40:55.460Z,99764.39
2017-10-10T15:43:22.428Z,99764.05
2017-10-10T15:45:49.094Z,99767.62
2017-10-10T15:48:15.542Z,99764.55
2017-10-10T15:50:42.068Z,99768.81
2017-10-10T15:53:08.599Z,99771.16
2017-10-10T15:55:34.950Z,99767.38
2017-10-10T15:58:01.373Z,99764.28
2017-10-10T16:00:27.867Z,99769.66
2017-10-10T16:02:54.256Z,99759.47
2017-10-10T16:05:20.649Z,99766.86
2017-10-10T16:07:47.673Z,99771.89
2017-10-10T16:10:14.111Z,99777.59
2017-10-10T16:12:40.582Z,99772.30
2017-10-10T16:15:07.293Z,99774.32
2017-10-10T16:17:33.653Z,99776.34
2017-10-10T16:20:00.050Z,99775.98
2017-10-10T16:22:27.244Z,99778.63
2017-10-10T16:24:53.581Z,99781.90
2017-10-10T16:27:20.069Z,99772.67
2017-10-10T16:29:46.373Z,99779.34
2017-10-10T16:32:12.681Z,99776.59
2017-10-10T16:34:39.022Z,99770.69
2017-10-10T16:37:05.401Z,99775.75
2017-10-10T16:39:31.716Z,99775.96
2017-10-10T16:41:58.054Z,99779.92
2017-10-10T16:44:25.204Z,99783.03
2017-10-10T16:46:51.582Z,99786.61
2017-10-10T16:49:17.967Z,99784.81
2017-10-10T16:51:44.330Z,99786.91
2017-10-10T16:54:10.669Z,99801.65
2017-10-10T16:56:37.134Z,99795.20
2017-10-10T16:59:03.738Z,99803.64
2017-10-10T17:01:31.012Z,99807.41
2017-10-10T17:03:57.430Z,99810.03
2017-10-10T17:06:23.854Z,99812.25
2017-10-10T17:08:50.409Z,99826.94
2017-10-10T17:11:16.734Z,99820.28
2017-10-10T17:13:43.121Z,99812.38
2017-10-10T17:16:09.507Z,99821.56
2017-10-10T17:18:35.886Z,99822.81
2017-10-10T17:21:02.547Z,99819.16
2017-10-10T17:23:29.670Z,99816.52
2017-10-10T17:25:55.993Z,99819.80
2017-10-10T17:28:22.401Z,99824.65
2017-10-10T17:30:49.642Z,99830.27
2017-10-10T17:33:16.063Z,99826.20
2017-10-10T17:35:42.457Z,99819.16
2017-10-10T17:38:08.793Z,99827.90
2017-10-10T17:40:36.158Z,99822.02
2017-10-10T17:43:03.238Z,99829.92
2017-10-10T17:45:29.642Z,99826.45
2017-10-10T17:47:56.699Z,99830.76
2017-10-10T17:50:23.085Z,99828.48
2017-10-10T17:52:49.601Z,99832.23
2017-10-10T17:55:16.197Z,99828.86
2017-10-10T17:57:43.321Z,99843.80
2017-10-10T18:00:09.675Z,99835.19
2017-10-10T18:02:36.775Z,99846.08
2017-10-10T18:05:03.400Z,99848.93
2017-10-10T18:07:29.793Z,99848.09
2017-10-10T18:09:56.344Z,99855.95
2017-10-10T18:12:23.732Z,99852.75
2017-10-10T18:14:50.241Z,99856.00
2017-10-10T18:17:16.806Z,99850.86
2017-10-10T18:19:43.225Z,99849.69
2017-10-10T18:22:09.557Z,99851.63
2017-10-10T18:24:35.844Z,99846.23
2017-10-10T18:27:02.351Z,99852.12
2017-10-10T18:29:28.805Z,99850.66
2017-10-10T18:31:56.104Z,99850.30
2017-10-10T18:34:28.833Z,99857.45
2017-10-10T18:36:55.363Z,99856.30
2017-10-10T18:39:21.877Z,99851.48
2017-10-10T18:41:48.340Z,99855.18
2017-10-10T18:44:15.243Z,99848.48
2017-10-10T18:46:41.627Z,99844.02
2017-10-10T18:49:08.050Z,99852.61
2017-10-10T18:51:34.525Z,99854.61
2017-10-10T18:54:00.996Z,99861.48
2017-10-10T18:56:28.370Z,99846.89
2017-10-10T18:58:54.741Z,99848.83
2017-10-10T19:01:21.827Z,99848.97
2017-10-10T19:03:48.575Z,99849.39
2017-10-10T19:06:14.923Z,99846.18
2017-10-10T19:08:42.413Z,99860.56
2017-10-10T19:11:09.614Z,99849.25
2017-10-10T19:13:35.989Z,99849.05
2017-10-10T19:16:02.512Z,99852.38
2017-10-10T19:18:29.647Z,99858.10
2017-10-10T19:20:56.047Z,99858.47
2017-10-10T19:23:22.399Z,99856.20
2017-10-10T19:25:48.817Z,99858.16
2017-10-10T19:28:15.117Z,99854.81
2017-10-10T19:30:42.374Z,99864.20
2017-10-10T19:33:08.978Z,99862.81
2017-10-10T19:35:35.496Z,99863.20
2017-10-10T19:38:01.979Z,99869.39
2017-10-10T19:40:29.080Z,99862.93
2017-10-10T19:42:55.554Z,99868.92
2017-10-10T19:45:21.976Z,99869.66
2017-10-10T19:47:48.439Z,99868.91
2017-10-10T19:50:14.822Z,99863.30
2017-10-10T19:52:41.150Z,99866.20
2017-10-10T19:55:07.555Z,99866.41
2017-10-10T19:57:34.012Z,99869.54
2017-10-10T20:00:00.369Z,99866.75
2017-10-10T20:02:26.723Z,99869.16
2017-10-10T20:04:53.811Z,99865.22
2017-10-10T20:07:20.150Z,99875.97
2017-10-10T20:09:46.580Z,99870.41
2017-10-10T20:12:12.995Z,99855.13
2017-10-10T20:14:39.349Z,99858.12
2017-10-10T20:17:05.621Z,99856.52
2017-10-10T20:19:32.129Z,99856.66
2017-10-10T20:21:58.546Z,99857.50
2017-10-10T20:24:24.919Z,99869.80
2017-10-10T20:26:52.031Z,99889.86
2017-10-10T20:29:18.463Z,99878.11
2017-10-10T20:31:44.796Z,99888.81
2017-10-10T20:34:11.231Z,99880.98
2017-10-10T20:36:37.572Z,99880.44
2017-10-10T20:39:04.068Z,99871.34
2017-10-10T20:41:30.645Z,99885.21
2017-10-10T20:43:57.173Z,99882.45
2017-10-10T20:46:23.605Z,99881.61
2017-10-10T20:48:50.000Z,99884.15
2017-10-10T20:51:16.420Z,99887.69
2017-10-10T20:53:43.460Z,99867.25
2017-10-10T20:56:10.564Z,99875.16
2017-10-10T20:58:40.377Z,99876.34
2017-10-10T21:01:06.713Z,99877.70
2017-10-10T21:03:33.126Z,99877.71
2017-10-10T21:05:59.484Z,99880.36
2017-10-10T21:08:26.006Z,99882.35
2017-10-10T21:10:52.385Z,99875.98
2017-10-10T21:13:18.896Z,99871.70
2017-10-10T21:15:45.260Z,99877.70
2017-10-10T21:18:12.551Z,99869.80
2017-10-10T21:20:39.025Z,99881.47
2017-10-10T21:23:06.232Z,99878.62
2017-10-10T21:25:32.601Z,99872.93
2017-10-10T21:27:59.096Z,99876.47
2017-10-10T21:30:25.353Z,99874.99
2017-10-10T21:32:51.672Z,99881.67
2017-10-10T21:35:18.057Z,99883.33
2017-10-10T21:37:45.254Z,99882.71
2017-10-10T21:40:11.631Z,99880.77
2017-10-10T21:42:38.032Z,99881.76
2017-10-10T21:45:04.402Z,99888.34
2017-10-10T21:47:31.598Z,99889.45
2017-10-10T21:49:58.006Z,99898.06
2017-10-10T21:52:24.411Z,99887.14
2017-10-10T21:54:51.213Z,99890.47
2017-10-10T21:57:18.362Z,99886.80
2017-10-10T21:59:44.943Z,99885.36
2017-10-10T22:02:11.432Z,99893.74
2017-10-10T22:04:37.976Z,99876.39
2017-10-10T22:07:05.402Z,99886.17
2017-10-10T22:09:31.789Z,99877.21
2017-10-10T22:11:58.182Z,99878.84
2017-10-10T22:14:24.726Z,99880.50
2017-10-10T22:16:51.159Z,99883.47
2017-10-10T22:19:17.520Z,99899.64
2017-10-10T22:21:43.844Z,99884.73
2017-10-10T22:24:10.214Z,99891.33
2017-10-10T22:26:37.418Z,99889.45
2017-10-10T22:29:03.844Z,99895.63
2017-10-10T22:31:30.193Z,99899.42
2017-10-10T22:33:56.497Z,99895.08
2017-10-10T22:36:23.916Z,99905.62
2017-10-10T22:38:50.997Z,99898.88
2017-10-10T22:41:17.363Z,99899.41
2017-10-10T22:43:43.782Z,99898.81
2017-10-10T22:46:10.107Z,99902.56
2017-10-10T22:48:36.553Z,99903.61
2017-10-10T22:51:04.053Z,99909.98
2017-10-10T22:53:31.110Z,99904.69
2017-10-10T22:55:58.180Z,99905.03
2017-10-10T22:58:24.730Z,99900.46
2017-10-10T23:00:51.044Z,99905.44
2017-10-10T23:03:17.417Z,99904.84
2017-10-10T23:05:43.846Z,99907.19
2017-10-10T23:08:10.116Z,99909.29
2017-10-10T23:10:37.189Z,99909.30
2017-10-10T23:13:03.832Z,99912.06
2017-10-10T23:15:30.143Z,99913.26
2017-10-10T23:17:57.204Z,99910.25
2017-10-10T23:20:23.518Z,99911.78
2017-10-10T23:22:49.896Z,99909.70
2017-10-10T23:25:16.323Z,99913.02
2017-10-10T23:27:42.748Z,99915.18
2017-10-10T23:30:09.093Z,99919.48
2017-10-10T23:32:35.374Z,99914.48
2017-10-10T23:35:02.428Z,99914.48
2017-10-10T23:37:29.508Z,99918.66
2017-10-10T23:39:55.843Z,99918.50
2017-10-10T23:42:22.160Z,99917.23
2017-10-10T23:44:48.439Z,99924.32
2017-10-10T23:47:14.725Z,99920.81
2017-10-10T23:49:41.003Z,99919.93
2017-10-10T23:52:07.354Z,99924.02
2017-10-10T23:54:34.383Z,99932.29
2017-10-10T23:57:01.479Z,99925.77
2017-10-10T23:59:27.782Z,99930.88
